Terminal Aerodrome Forecast
Issued by NWS

Home | Current Version | Previous Version | Text Only | Print | Product List | Glossary On
Versions: 1 2 3 4 5 6 7 8 9 10 11 12 13 14 15 16 17 18 19 20 21 22 23 24 25 26 27 28 29 30 31 32 33 34
000
FTUS45 KGJT 220822 AAC
TAFMTJ
TAF AMD
KMTJ 220822Z 2208/2306 12004KT 3SM BR FEW001 OVC050 WS020/32030KT
      TEMPO 2208/2212 1/2SM FZFG OVC001
     FM221600 VRB02KT P6SM VCSH BKN010
      TEMPO 2218/2222 5SM -RASN BKN010
     FM222200 30010G20KT P6SM VCSH OVC015
     FM230500 14005KT P6SM FEW020 BKN050=

USA.gov is the U.S. government's official web portal to all federal, state and local government web resources and services.